createdAt,value
2017-09-24T00:02:03.370Z,89.10
2017-09-24T00:04:30.191Z,88.90
2017-09-24T00:06:57.183Z,89.60
2017-09-24T00:09:23.959Z,90.80
2017-09-24T00:11:50.769Z,90.90
2017-09-24T00:14:17.569Z,91.40
2017-09-24T00:16:44.359Z,91.10
2017-09-24T00:19:11.163Z,90.50
2017-09-24T00:21:38.001Z,90.50
2017-09-24T00:24:05.542Z,90.30
2017-09-24T00:26:32.403Z,90.20
2017-09-24T00:28:59.321Z,90.10
2017-09-24T00:31:26.197Z,90.70
2017-09-24T00:33:53.053Z,90.50
2017-09-24T00:36:19.858Z,90.60
2017-09-24T00:38:46.697Z,90.60
2017-09-24T00:41:13.565Z,90.10
2017-09-24T00:43:40.450Z,88.80
2017-09-24T00:46:07.341Z,89.30
2017-09-24T00:48:34.943Z,89.90
2017-09-24T00:51:01.768Z,89.80
2017-09-24T00:53:29.426Z,90.80
2017-09-24T00:55:56.322Z,90.50
2017-09-24T00:58:23.987Z,90.50
2017-09-24T01:00:51.594Z,90.90
2017-09-24T01:03:18.484Z,90.90
2017-09-24T01:05:45.345Z,91.10
2017-09-24T01:08:12.187Z,91.20
2017-09-24T01:10:39.074Z,91.20
2017-09-24T01:13:05.969Z,91.20
2017-09-24T01:15:34.207Z,90.80
2017-09-24T01:18:01.070Z,90.50
2017-09-24T01:20:27.972Z,90.70
2017-09-24T01:22:54.874Z,91.00
2017-09-24T01:25:21.728Z,91.50
2017-09-24T01:27:49.362Z,91.30
2017-09-24T01:30:16.259Z,91.30
2017-09-24T01:32:43.927Z,91.20
2017-09-24T01:35:10.806Z,91.20
2017-09-24T01:37:38.475Z,89.70
2017-09-24T01:40:05.357Z,89.70
2017-09-24T01:42:32.968Z,88.00
2017-09-24T01:44:59.874Z,88.00
2017-09-24T01:47:26.745Z,88.30
2017-09-24T01:49:54.391Z,88.70
2017-09-24T01:52:21.339Z,88.70
2017-09-24T01:54:48.250Z,88.60
2017-09-24T01:57:15.879Z,88.30
2017-09-24T01:59:42.768Z,88.20
2017-09-24T02:02:09.627Z,88.70
2017-09-24T02:04:36.495Z,89.00
2017-09-24T02:07:03.381Z,88.30
2017-09-24T02:09:30.999Z,89.00
2017-09-24T02:11:57.820Z,89.00
2017-09-24T02:14:25.356Z,89.40
2017-09-24T02:16:52.160Z,89.40
2017-09-24T02:19:18.990Z,89.40
2017-09-24T02:21:45.808Z,89.40
2017-09-24T02:24:12.645Z,89.30
2017-09-24T02:26:40.210Z,89.40
2017-09-24T02:29:07.043Z,89.30
2017-09-24T02:31:33.879Z,90.10
2017-09-24T02:34:00.739Z,90.80
2017-09-24T02:36:27.601Z,91.30
2017-09-24T02:38:54.432Z,91.40
2017-09-24T02:41:21.980Z,90.90
2017-09-24T03:02:50.147Z,88.50
2017-09-24T03:05:16.959Z,88.10
2017-09-24T03:07:43.787Z,89.40
2017-09-24T03:10:10.587Z,89.10
2017-09-24T03:12:37.415Z,87.90
2017-09-24T03:15:04.209Z,87.50
2017-09-24T03:17:31.016Z,87.00
2017-09-24T03:19:57.800Z,87.50
2017-09-24T03:22:25.349Z,90.30
2017-09-24T03:24:52.210Z,90.10
2017-09-24T03:27:19.051Z,89.90
2017-09-24T03:29:45.864Z,89.50
2017-09-24T03:32:13.398Z,88.90
2017-09-24T03:34:40.205Z,88.80
2017-09-24T03:37:07.058Z,88.10
2017-09-24T03:39:34.594Z,87.70
2017-09-24T03:42:01.419Z,87.60
2017-09-24T03:44:28.222Z,87.30
2017-09-24T03:46:55.009Z,87.50
2017-09-24T03:49:21.832Z,88.50
2017-09-24T03:51:48.634Z,89.60
2017-09-24T03:54:15.444Z,89.10
2017-09-24T03:56:42.251Z,88.00
2017-09-24T03:59:09.053Z,87.90
2017-09-24T04:01:35.851Z,87.90
2017-09-24T04:04:02.682Z,88.20
2017-09-24T04:06:29.493Z,87.70
2017-09-24T04:08:56.306Z,87.40
2017-09-24T04:11:23.175Z,86.40
2017-09-24T04:13:50.008Z,86.50
2017-09-24T04:16:16.796Z,86.40
2017-09-24T04:18:43.618Z,86.20
2017-09-24T04:21:10.428Z,86.30
2017-09-24T04:23:37.276Z,86.30
2017-09-24T04:26:04.087Z,86.80
2017-09-24T04:28:31.628Z,88.20
2017-09-24T04:30:58.454Z,88.10
2017-09-24T04:33:25.601Z,89.80
2017-09-24T04:35:52.395Z,90.10
2017-09-24T04:38:19.221Z,89.30
2017-09-24T04:40:46.032Z,89.50
2017-09-24T04:43:12.865Z,90.20
2017-09-24T04:45:39.631Z,90.30
2017-09-24T04:48:06.446Z,90.30
2017-09-24T04:50:33.982Z,90.40
2017-09-24T04:53:00.764Z,90.00
2017-09-24T04:55:27.574Z,90.20
2017-09-24T04:57:54.378Z,89.90
2017-09-24T05:00:21.209Z,90.20
2017-09-24T05:02:47.991Z,90.30
2017-09-24T05:05:14.788Z,90.10
2017-09-24T05:07:42.336Z,90.40
2017-09-24T05:10:09.167Z,90.30
2017-09-24T05:12:35.967Z,90.40
2017-09-24T05:15:02.784Z,90.80
2017-09-24T05:17:29.601Z,91.00
2017-09-24T05:19:56.388Z,91.10
2017-09-24T05:22:23.187Z,91.00
2017-09-24T05:24:50.011Z,91.10
2017-09-24T05:27:16.804Z,91.10
2017-09-24T05:29:43.622Z,91.10
2017-09-24T05:32:10.412Z,91.30
2017-09-24T05:34:37.286Z,91.20
2017-09-24T05:37:04.068Z,91.30
2017-09-24T05:39:30.880Z,90.80
2017-09-24T05:41:57.675Z,90.00
2017-09-24T05:44:24.513Z,89.20
2017-09-24T05:46:51.318Z,88.30
2017-09-24T05:49:18.154Z,88.10
2017-09-24T05:51:44.997Z,88.10
2017-09-24T05:54:11.801Z,89.10
2017-09-24T05:56:38.602Z,88.10
2017-09-24T05:59:05.430Z,88.20
2017-09-24T06:01:33.982Z,88.00
2017-09-24T06:04:00.822Z,88.00
2017-09-24T06:06:27.651Z,87.90
2017-09-24T06:08:55.180Z,88.10
2017-09-24T06:11:21.975Z,88.10
2017-09-24T06:13:48.840Z,88.40
2017-09-24T06:16:15.710Z,88.10
2017-09-24T06:18:42.696Z,88.40
2017-09-24T06:21:10.090Z,87.80
2017-09-24T06:23:36.937Z,87.60
2017-09-24T06:26:03.764Z,87.50
2017-09-24T06:28:31.369Z,87.40
2017-09-24T06:30:58.196Z,87.40
2017-09-24T06:33:25.021Z,87.30
2017-09-24T06:35:51.850Z,87.30
2017-09-24T06:38:18.702Z,88.30
2017-09-24T06:40:46.262Z,87.90
2017-09-24T06:43:13.063Z,87.90
2017-09-24T06:45:39.888Z,89.30
2017-09-24T06:48:07.706Z,89.40
2017-09-24T06:50:34.494Z,89.60
2017-09-24T06:53:01.318Z,88.30
2017-09-24T06:55:28.108Z,87.80
2017-09-24T06:57:54.922Z,87.50
2017-09-24T07:00:22.517Z,88.90
2017-09-24T07:02:49.388Z,88.80
2017-09-24T07:05:16.195Z,89.00
2017-09-24T07:07:43.033Z,90.00
2017-09-24T07:10:09.835Z,89.60
2017-09-24T07:12:36.620Z,90.20
2017-09-24T07:15:03.487Z,90.50
2017-09-24T07:17:31.055Z,90.60
2017-09-24T07:20:00.070Z,90.60
2017-09-24T07:22:26.914Z,90.40
2017-09-24T07:24:54.458Z,88.70
2017-09-24T07:27:21.283Z,88.60
2017-09-24T07:29:48.133Z,90.00
2017-09-24T07:32:14.954Z,90.60
2017-09-24T07:34:41.762Z,89.90
2017-09-24T07:37:08.641Z,88.80
2017-09-24T07:39:35.502Z,88.40
2017-09-24T07:42:02.319Z,90.00
2017-09-24T07:44:29.864Z,90.90
2017-09-24T07:46:56.684Z,90.90
2017-09-24T07:49:23.472Z,90.90
2017-09-24T07:51:50.319Z,90.90
2017-09-24T07:54:17.151Z,91.10
2017-09-24T07:56:43.988Z,90.20
2017-09-24T07:59:11.599Z,91.30
2017-09-24T08:01:38.430Z,91.10
2017-09-24T08:04:05.279Z,89.60
2017-09-24T08:06:32.068Z,90.60
2017-09-24T08:08:58.934Z,90.90
2017-09-24T08:11:25.754Z,90.70
2017-09-24T08:13:52.562Z,91.30
2017-09-24T08:16:19.401Z,90.40
2017-09-24T08:18:46.963Z,91.40
2017-09-24T08:21:13.807Z,91.40
2017-09-24T08:23:40.637Z,91.50
2017-09-24T08:26:07.460Z,90.80
2017-09-24T08:28:34.975Z,91.40
2017-09-24T08:31:01.783Z,91.40
2017-09-24T08:33:29.142Z,90.70
2017-09-24T08:35:56.725Z,91.20
2017-09-24T08:38:23.598Z,91.10
2017-09-24T08:40:51.155Z,89.50
2017-09-24T08:43:17.961Z,89.40
2017-09-24T08:45:44.752Z,88.40
2017-09-24T08:48:11.629Z,90.50
2017-09-24T08:50:38.516Z,90.50
2017-09-24T08:53:05.360Z,90.20
2017-09-24T08:55:32.213Z,90.70
2017-09-24T08:57:59.032Z,90.80
2017-09-24T09:00:25.904Z,90.80
2017-09-24T09:02:52.760Z,91.00
2017-09-24T09:05:19.599Z,90.70
2017-09-24T09:07:46.454Z,90.70
2017-09-24T09:10:13.299Z,90.50
2017-09-24T09:12:40.103Z,90.00
2017-09-24T09:15:06.920Z,90.50
2017-09-24T09:17:33.713Z,89.60
2017-09-24T09:20:00.544Z,88.70
2017-09-24T09:22:27.369Z,90.00
2017-09-24T09:24:54.165Z,90.10
2017-09-24T09:27:20.960Z,90.20
2017-09-24T09:29:47.783Z,90.20
2017-09-24T09:32:14.657Z,90.50
2017-09-24T09:35:00.336Z,89.00
2017-09-24T09:37:27.135Z,88.90
2017-09-24T09:39:54.287Z,87.80
2017-09-24T09:42:21.199Z,88.20
2017-09-24T09:44:52.008Z,87.10
2017-09-24T09:47:26.053Z,86.70
2017-09-24T09:49:53.111Z,85.20
2017-09-24T09:52:20.135Z,85.60
2017-09-24T09:54:51.269Z,84.90
2017-09-24T09:57:18.551Z,84.50
2017-09-24T09:59:45.724Z,82.50
2017-09-24T10:02:12.977Z,82.50
2017-09-24T10:04:39.849Z,83.20
2017-09-24T10:07:40.594Z,83.40
2017-09-24T10:10:15.559Z,83.00
2017-09-24T10:12:42.449Z,82.70
2017-09-24T10:15:09.321Z,83.00
2017-09-24T10:17:36.735Z,82.30
2017-09-24T10:20:03.589Z,80.30
2017-09-24T10:22:30.452Z,79.10
2017-09-24T10:24:57.268Z,80.70
2017-09-24T10:27:24.093Z,80.20
2017-09-24T10:30:08.966Z,79.50
2017-09-24T10:32:35.849Z,78.80
2017-09-24T10:35:03.549Z,79.40
2017-09-24T10:37:30.143Z,79.30
2017-09-24T10:39:56.971Z,79.90
2017-09-24T10:42:23.779Z,78.70
2017-09-24T10:44:50.642Z,76.80
2017-09-24T10:47:17.521Z,78.00
2017-09-24T10:49:45.057Z,78.60
2017-09-24T10:52:11.900Z,78.60
2017-09-24T10:54:38.708Z,78.10
2017-09-24T10:57:05.544Z,77.50
2017-09-24T10:59:32.347Z,76.00
2017-09-24T11:01:59.975Z,76.80
2017-09-24T11:04:26.800Z,76.80
2017-09-24T11:06:53.645Z,76.40
2017-09-24T11:09:21.198Z,75.10
2017-09-24T11:11:48.002Z,75.10
2017-09-24T11:14:14.820Z,75.90
2017-09-24T11:16:41.662Z,75.60
2017-09-24T11:19:08.506Z,73.90
2017-09-24T11:21:35.352Z,74.40
2017-09-24T11:24:02.194Z,75.90
2017-09-24T11:26:29.755Z,72.90
2017-09-24T11:28:57.400Z,74.10
2017-09-24T11:31:24.215Z,74.20
2017-09-24T11:33:51.083Z,74.60
2017-09-24T11:36:17.911Z,73.70
2017-09-24T11:38:44.736Z,73.10
2017-09-24T11:41:11.563Z,73.60
2017-09-24T11:43:38.375Z,73.30
2017-09-24T11:46:05.200Z,71.00
2017-09-24T11:48:32.017Z,71.30
2017-09-24T11:50:58.873Z,70.30
2017-09-24T11:53:26.076Z,71.10
2017-09-24T11:55:52.891Z,69.60
2017-09-24T11:58:19.771Z,68.60
2017-09-24T12:00:47.364Z,69.10
2017-09-24T12:03:14.924Z,67.80
2017-09-24T12:05:41.787Z,67.80
2017-09-24T12:08:08.640Z,69.40
2017-09-24T12:10:35.545Z,69.80
2017-09-24T12:13:02.355Z,68.30
2017-09-24T12:15:29.183Z,67.00
2017-09-24T12:17:56.102Z,68.40
2017-09-24T12:20:23.675Z,69.80
2017-09-24T12:22:50.479Z,69.70
2017-09-24T12:25:17.319Z,67.70
2017-09-24T12:27:44.900Z,69.60
2017-09-24T12:30:11.781Z,69.60
2017-09-24T12:32:39.363Z,69.10
2017-09-24T12:35:06.152Z,69.20
2017-09-24T12:37:32.976Z,68.50
2017-09-24T12:39:59.822Z,69.90
2017-09-24T12:42:26.670Z,68.50
2017-09-24T12:44:53.440Z,68.90
2017-09-24T12:47:20.243Z,69.20
2017-09-24T12:49:47.082Z,68.20
2017-09-24T12:52:13.955Z,68.00
2017-09-24T12:54:40.756Z,68.40
2017-09-24T12:57:07.549Z,68.30
2017-09-24T12:59:34.382Z,66.80
2017-09-24T13:02:01.980Z,67.90
2017-09-24T13:04:28.846Z,67.80
2017-09-24T13:06:55.690Z,69.00
2017-09-24T13:09:23.316Z,68.20
2017-09-24T13:11:50.103Z,68.20
2017-09-24T13:14:16.917Z,65.90
2017-09-24T13:16:43.737Z,66.80
2017-09-24T13:19:10.574Z,68.40
2017-09-24T13:21:37.391Z,67.20
2017-09-24T13:24:04.194Z,67.60
2017-09-24T13:26:31.026Z,65.60
2017-09-24T13:28:58.076Z,66.40
2017-09-24T13:31:24.857Z,66.70
2017-09-24T13:33:51.682Z,66.80
2017-09-24T13:36:19.214Z,67.00
2017-09-24T13:38:46.026Z,66.90
2017-09-24T13:41:13.560Z,67.10
2017-09-24T13:43:40.368Z,67.00
2017-09-24T13:46:07.157Z,67.40
2017-09-24T13:48:34.019Z,67.60
2017-09-24T13:51:00.845Z,66.40
2017-09-24T13:53:28.407Z,65.20
2017-09-24T13:55:55.994Z,65.50
2017-09-24T13:58:23.611Z,66.20
2017-09-24T14:00:50.415Z,66.20
2017-09-24T14:03:17.216Z,65.70
2017-09-24T14:05:44.023Z,65.70
2017-09-24T14:08:10.820Z,64.30
2017-09-24T14:10:37.603Z,64.50
2017-09-24T14:13:04.429Z,64.10
2017-09-24T14:15:31.985Z,66.10
2017-09-24T14:17:58.779Z,66.10
2017-09-24T14:20:25.578Z,65.30
2017-09-24T14:22:52.407Z,64.30
2017-09-24T14:25:19.239Z,65.00
2017-09-24T14:27:46.062Z,63.60
2017-09-24T14:30:12.906Z,64.20
2017-09-24T14:32:39.801Z,65.60
2017-09-24T14:35:06.599Z,64.80
2017-09-24T14:37:35.047Z,64.70
2017-09-24T14:40:01.883Z,64.60
2017-09-24T14:42:28.696Z,63.10
2017-09-24T14:44:55.512Z,61.30
2017-09-24T14:47:22.349Z,64.50
2017-09-24T14:49:49.178Z,64.00
2017-09-24T14:52:16.042Z,65.50
2017-09-24T14:54:42.933Z,65.60
2017-09-24T14:57:09.806Z,65.40
2017-09-24T14:59:36.639Z,65.20
2017-09-24T15:02:03.496Z,65.20
2017-09-24T15:04:30.380Z,65.20
2017-09-24T15:06:58.981Z,65.60
2017-09-24T15:09:25.859Z,65.50
2017-09-24T15:11:53.454Z,66.00
2017-09-24T15:14:20.369Z,65.50
2017-09-24T15:16:47.950Z,66.10
2017-09-24T15:19:15.588Z,67.00
2017-09-24T15:21:42.507Z,67.00
2017-09-24T15:24:09.383Z,66.70
2017-09-24T15:26:36.280Z,66.40
2017-09-24T15:29:03.251Z,67.40
2017-09-24T15:31:30.084Z,67.70
2017-09-24T15:33:56.949Z,68.20
2017-09-24T15:36:23.764Z,67.70
2017-09-24T15:38:51.336Z,65.90
2017-09-24T15:41:18.919Z,66.70
2017-09-24T15:43:45.750Z,66.70
2017-09-24T15:46:12.718Z,67.60
2017-09-24T15:48:39.551Z,66.80
2017-09-24T15:51:06.388Z,68.00
2017-09-24T15:53:33.281Z,68.30
2017-09-24T15:56:00.136Z,67.00
2017-09-24T15:58:26.993Z,67.30
2017-09-24T16:00:53.819Z,68.40
2017-09-24T16:03:21.385Z,68.20
2017-09-24T16:05:48.217Z,68.20
2017-09-24T16:08:15.053Z,67.40
2017-09-24T16:10:41.871Z,67.70
2017-09-24T16:13:09.421Z,68.60
2017-09-24T16:15:36.258Z,68.40
2017-09-24T16:18:03.106Z,68.60
2017-09-24T16:20:30.046Z,69.10
2017-09-24T16:22:56.953Z,68.60
2017-09-24T16:25:23.771Z,68.20
2017-09-24T16:27:50.649Z,69.10
2017-09-24T16:30:17.527Z,69.20
2017-09-24T16:32:44.374Z,68.50
2017-09-24T16:35:13.292Z,68.90
2017-09-24T16:37:40.881Z,68.80
2017-09-24T16:40:07.724Z,68.70
2017-09-24T16:42:34.548Z,69.60
2017-09-24T16:45:02.136Z,70.10
2017-09-24T16:47:28.969Z,70.10
2017-09-24T16:49:56.337Z,69.60
2017-09-24T16:52:23.275Z,71.00
2017-09-24T16:54:50.130Z,71.10
2017-09-24T16:57:17.007Z,70.60
2017-09-24T16:59:43.871Z,71.40
2017-09-24T17:02:10.719Z,71.30
2017-09-24T17:04:37.604Z,71.80
2017-09-24T17:07:04.417Z,71.90
2017-09-24T17:09:31.281Z,72.00
2017-09-24T17:11:58.162Z,71.90
2017-09-24T17:14:25.018Z,71.90
2017-09-24T17:16:51.999Z,72.40
2017-09-24T17:19:18.875Z,72.10
2017-09-24T17:21:45.868Z,71.90
2017-09-24T17:24:12.720Z,72.70
2017-09-24T17:26:40.515Z,72.90
2017-09-24T17:29:07.364Z,72.80
2017-09-24T17:31:34.194Z,72.50
2017-09-24T17:34:01.075Z,74.60
2017-09-24T17:36:27.875Z,73.70
2017-09-24T17:38:54.751Z,74.00
2017-09-24T17:41:21.578Z,73.80
2017-09-24T17:43:49.190Z,75.60
2017-09-24T17:46:16.038Z,75.60
2017-09-24T17:48:42.914Z,76.90
2017-09-24T17:51:09.833Z,78.10
2017-09-24T17:53:36.830Z,77.90
2017-09-24T17:56:03.740Z,79.00
2017-09-24T17:58:30.626Z,79.10
2017-09-24T18:00:57.593Z,80.20
2017-09-24T18:03:25.195Z,78.80
2017-09-24T18:05:52.040Z,78.80
2017-09-24T18:08:19.024Z,78.70
2017-09-24T18:10:46.196Z,78.80
2017-09-24T18:13:14.104Z,78.70
2017-09-24T18:15:42.653Z,80.00
2017-09-24T18:18:10.037Z,80.00
2017-09-24T18:20:38.432Z,80.00
2017-09-24T18:23:06.401Z,80.40
2017-09-24T18:25:34.996Z,81.40
2017-09-24T18:28:03.415Z,81.00
2017-09-24T18:30:32.282Z,82.50
2017-09-24T18:33:01.226Z,83.50
2017-09-24T18:35:29.599Z,81.60
2017-09-24T18:37:57.539Z,82.10
2017-09-24T18:40:26.996Z,81.80
2017-09-24T18:42:55.663Z,81.50
2017-09-24T18:45:23.646Z,80.80
2017-09-24T18:47:52.358Z,80.80
2017-09-24T18:50:21.759Z,82.00
2017-09-24T18:52:51.151Z,83.10
2017-09-24T18:55:20.016Z,83.00
2017-09-24T18:57:52.013Z,82.90
2017-09-24T19:00:20.673Z,82.80
2017-09-24T19:02:48.526Z,84.50
2017-09-24T19:05:17.159Z,84.10
2017-09-24T19:07:46.022Z,85.20
2017-09-24T19:10:14.867Z,84.60
2017-09-24T19:15:45.739Z,85.10
2017-09-24T19:18:15.334Z,85.10
2017-09-24T19:20:43.966Z,85.10
2017-09-24T19:23:12.785Z,85.80
2017-09-24T19:25:42.920Z,86.30
2017-09-24T19:28:12.632Z,86.20
2017-09-24T19:30:44.329Z,86.10
2017-09-24T19:33:13.097Z,86.30
2017-09-24T19:35:42.006Z,86.00
2017-09-24T19:38:11.267Z,84.90
2017-09-24T19:40:40.024Z,84.90
2017-09-24T19:43:11.549Z,85.20
2017-09-24T19:45:40.607Z,85.50
2017-09-24T19:48:09.448Z,85.80
2017-09-24T19:50:38.669Z,85.10
2017-09-24T19:53:07.371Z,85.30
2017-09-24T19:55:34.573Z,84.70
2017-09-24T19:58:01.487Z,84.20
2017-09-24T20:00:28.463Z,84.80
2017-09-24T20:02:55.326Z,84.20
2017-09-24T20:05:22.432Z,85.50
2017-09-24T20:07:49.299Z,86.40
2017-09-24T20:10:16.685Z,85.20
2017-09-24T20:12:43.504Z,85.00
2017-09-24T20:15:11.112Z,85.50
2017-09-24T20:17:37.970Z,85.40
2017-09-24T20:20:04.849Z,85.90
2017-09-24T20:22:31.661Z,85.80
2017-09-24T20:24:58.498Z,86.00
2017-09-24T20:27:25.341Z,86.30
2017-09-24T20:29:53.562Z,84.50
2017-09-24T20:32:20.700Z,84.40
2017-09-24T20:34:48.315Z,83.30
2017-09-24T20:37:15.644Z,83.20
2017-09-24T20:39:43.766Z,85.80
2017-09-24T20:42:11.851Z,86.40
2017-09-24T20:44:39.373Z,86.40
2017-09-24T20:47:06.846Z,87.20
2017-09-24T20:49:33.953Z,87.50
2017-09-24T20:52:01.593Z,87.20
2017-09-24T20:54:28.814Z,87.20
2017-09-24T20:56:56.063Z,86.00
2017-09-24T20:59:23.595Z,84.50
2017-09-24T21:01:51.835Z,84.40
2017-09-24T21:04:19.415Z,83.80
2017-09-24T21:06:46.332Z,83.80
2017-09-24T21:09:14.047Z,86.00
2017-09-24T21:11:41.475Z,87.60
2017-09-24T21:14:08.397Z,88.30
2017-09-24T21:16:35.960Z,85.90
2017-09-24T21:19:02.797Z,85.80
2017-09-24T21:21:29.642Z,85.40
2017-09-24T21:23:56.465Z,86.50
2017-09-24T21:26:23.317Z,86.00
2017-09-24T21:28:50.954Z,84.70
2017-09-24T21:31:17.797Z,84.60
2017-09-24T21:33:44.628Z,83.90
2017-09-24T21:36:12.219Z,85.80
2017-09-24T21:38:39.077Z,85.10
2017-09-24T21:41:05.912Z,85.90
2017-09-24T21:43:32.752Z,86.80
2017-09-24T21:45:59.584Z,87.80
2017-09-24T21:48:26.433Z,88.30
2017-09-24T21:50:53.279Z,88.50
2017-09-24T21:53:20.117Z,86.40
2017-09-24T21:55:47.679Z,85.20
2017-09-24T21:58:14.544Z,85.10
2017-09-24T22:00:41.437Z,85.80
2017-09-24T22:03:09.510Z,86.70
2017-09-24T22:05:37.075Z,87.70
2017-09-24T22:08:03.951Z,86.80
2017-09-24T22:10:30.809Z,86.60
2017-09-24T22:12:57.663Z,86.80
2017-09-24T22:15:24.538Z,86.90
2017-09-24T22:17:52.080Z,86.50
2017-09-24T22:20:18.884Z,86.50
2017-09-24T22:22:45.695Z,86.70
2017-09-24T22:25:12.498Z,87.10
2017-09-24T22:27:40.086Z,84.60
2017-09-24T22:30:07.632Z,83.60
2017-09-24T22:32:34.454Z,83.60
2017-09-24T22:35:01.240Z,84.30
2017-09-24T22:37:28.027Z,85.00
2017-09-24T22:39:54.800Z,86.20
2017-09-24T22:42:22.321Z,86.90
2017-09-24T22:44:49.941Z,85.90
2017-09-24T22:47:16.782Z,85.90
2017-09-24T22:49:43.623Z,86.60
2017-09-24T22:52:10.467Z,87.30
2017-09-24T22:54:37.251Z,88.10
2017-09-24T22:57:04.047Z,88.50
2017-09-24T22:59:31.024Z,87.70
2017-09-24T23:01:58.821Z,87.70
2017-09-24T23:04:25.600Z,87.70
2017-09-24T23:06:52.457Z,87.30
2017-09-24T23:09:19.256Z,87.30
2017-09-24T23:11:46.082Z,87.40
2017-09-24T23:14:12.894Z,88.20
2017-09-24T23:16:39.679Z,88.20
2017-09-24T23:19:06.516Z,87.60
2017-09-24T23:21:33.304Z,88.00
2017-09-24T23:24:00.100Z,87.70
2017-09-24T23:26:26.890Z,86.80
2017-09-24T23:28:53.701Z,86.90
2017-09-24T23:31:20.558Z,85.80
2017-09-24T23:33:47.354Z,86.30
2017-09-24T23:36:14.338Z,86.00
2017-09-24T23:38:41.294Z,86.90
2017-09-24T23:41:08.351Z,88.00
2017-09-24T23:43:35.189Z,88.60
2017-09-24T23:46:02.156Z,88.90
2017-09-24T23:48:28.965Z,89.40
2017-09-24T23:50:56.634Z,89.80
2017-09-24T23:53:23.440Z,89.70
2017-09-24T23:55:50.263Z,89.80
2017-09-24T23:58:18.010Z,89.30
